Time;durP1;ratioP1;P1;durP2;ratioP2;P2;SDS_P1;SDS_P2;PMS_P1;PMS_P2;Temp;Humidity;BMP_temperature;BMP_pressure;BME280_temperature;BME280_humidity;BME280_pressure;Samples;Min_cycle;Max_cycle;Signal;HPM_P1;HPM_P2
2022/04/14 00:00:19;;;;;;;8.88;5.60;;;;;;;20.67;52.78;101960.94;5015911;28;20033;-59
2022/04/14 00:02:44;;;;;;;8.50;6.30;;;;;;;20.67;52.78;101958.31;5015787;28;20080;-58
2022/04/14 00:05:09;;;;;;;9.02;5.75;;;;;;;20.63;52.79;101947.91;5014533;28;20341;-59
2022/04/14 00:07:36;;;;;;;8.35;5.25;;;;;;;20.63;52.72;101947.03;5015765;28;20445;-58
2022/04/14 00:10:03;;;;;;;9.70;5.93;;;;;;;20.64;52.78;101949.59;5015395;28;20437;-58
2022/04/14 00:12:28;;;;;;;8.60;5.50;;;;;;;20.61;52.72;101948.97;5014946;28;20022;-58
2022/04/14 00:14:53;;;;;;;9.07;6.45;;;;;;;20.59;52.66;101941.13;5015136;28;20048;-58
2022/04/14 00:17:19;;;;;;;9.48;5.85;;;;;;;20.58;52.77;101947.38;5015459;28;20505;-58
2022/04/14 00:19:44;;;;;;;9.77;5.78;;;;;;;20.56;52.90;101937.88;5014756;28;20113;-58
2022/04/14 00:22:12;;;;;;;9.90;5.68;;;;;;;20.56;52.98;101943.16;5015106;28;20026;-58
2022/04/14 00:24:37;;;;;;;9.98;6.03;;;;;;;20.55;52.91;101938.81;5015008;28;20038;-58
2022/04/14 00:27:03;;;;;;;9.23;5.75;;;;;;;20.53;52.88;101936.28;5014364;28;20025;-58
2022/04/14 00:29:29;;;;;;;8.52;5.60;;;;;;;20.53;52.78;101935.44;5015171;28;20064;-59
2022/04/14 00:31:54;;;;;;;7.20;5.28;;;;;;;20.53;52.88;101935.44;5013493;28;20018;-59
2022/04/14 00:34:19;;;;;;;8.30;5.90;;;;;;;20.52;52.94;101936.41;5014812;28;20041;-59
2022/04/14 00:36:47;;;;;;;9.90;5.60;;;;;;;20.52;52.89;101936.41;5015150;28;20038;-59
2022/04/14 00:39:12;;;;;;;8.55;5.60;;;;;;;20.52;52.91;101933.75;5014193;28;20280;-58
2022/04/14 00:41:41;;;;;;;10.27;5.95;;;;;;;20.50;52.92;101931.22;5014629;28;20106;-59
2022/04/14 00:44:06;;;;;;;8.50;5.45;;;;;;;20.50;52.85;101927.72;5014960;28;20045;-58
2022/04/14 00:46:31;;;;;;;8.00;5.00;;;;;;;20.47;52.68;101929.66;5014527;28;20030;-59
2022/04/14 00:48:57;;;;;;;8.63;5.53;;;;;;;20.45;52.88;101931.56;5014351;28;20310;-59
2022/04/14 00:51:23;;;;;;;8.52;5.55;;;;;;;20.47;52.82;101936.72;5014973;28;20112;-58
2022/04/14 00:53:48;;;;;;;8.88;5.60;;;;;;;20.46;53.00;101932.41;5014122;28;20355;-58
2022/04/14 00:56:14;;;;;;;9.27;5.40;;;;;;;20.45;52.79;101930.72;5014603;28;20026;-58
2022/04/14 00:58:43;;;;;;;7.70;4.95;;;;;;;20.43;52.92;101935.28;5014560;28;20022;-58
2022/04/14 01:01:08;;;;;;;8.77;5.75;;;;;;;20.42;53.18;101934.44;5013711;28;20088;-57
2022/04/14 01:03:35;;;;;;;7.95;5.07;;;;;;;20.42;52.88;101930.94;5014324;28;20038;-58
2022/04/14 01:06:01;;;;;;;8.38;5.43;;;;;;;20.42;52.78;101938.88;5014371;28;20033;-57
2022/04/14 01:08:32;;;;;;;8.10;5.60;;;;;;;20.40;52.88;101935.50;5013639;28;20065;-57
2022/04/14 01:10:58;;;;;;;9.63;5.80;;;;;;;20.39;52.90;101934.66;5014325;28;20083;-57
2022/04/14 01:13:24;;;;;;;11.00;5.88;;;;;;;20.38;53.01;101930.34;5014358;28;20029;-57
2022/04/14 01:15:49;;;;;;;7.95;5.10;;;;;;;20.37;53.00;101930.44;5013126;28;20042;-58
2022/04/14 01:18:15;;;;;;;10.35;5.22;;;;;;;20.36;53.03;101934.91;5014314;28;20050;-58
2022/04/14 01:20:42;;;;;;;8.52;5.30;;;;;;;20.36;52.92;101934.03;5014286;28;20022;-58
2022/04/14 01:23:09;;;;;;;8.13;5.30;;;;;;;20.34;53.10;101934.16;5013065;28;20026;-58
2022/04/14 01:25:35;;;;;;;9.35;5.57;;;;;;;20.34;52.98;101930.66;5014469;28;20033;-58
2022/04/14 01:28:04;;;;;;;9.38;5.30;;;;;;;20.33;53.07;101927.19;5013384;28;20030;-57
2022/04/14 01:30:31;;;;;;;8.25;5.50;;;;;;;20.34;52.93;101928.03;5014013;28;20022;-59
2022/04/14 01:32:56;;;;;;;8.35;5.35;;;;;;;20.32;52.88;101929.94;5013774;28;20030;-59
2022/04/14 01:35:25;;;;;;;7.82;5.30;;;;;;;20.29;52.96;101931.84;5013377;28;20497;-58
2022/04/14 01:37:50;;;;;;;9.48;4.97;;;;;;;20.28;53.23;101926.66;5013688;28;20036;-57
2022/04/14 01:40:19;;;;;;;6.28;5.05;;;;;;;20.28;53.08;101929.31;5014274;28;20026;-58
2022/04/14 01:42:44;;;;;;;8.07;5.28;;;;;;;20.27;53.09;101932.94;5013410;28;20432;-57
2022/04/14 01:45:10;;;;;;;8.63;5.30;;;;;;;20.26;53.11;101933.88;5013117;28;20029;-57
2022/04/14 01:47:43;;;;;;;8.02;5.53;;;;;;;20.27;52.95;101927.63;5013887;28;20018;-57
2022/04/14 01:50:10;;;;;;;9.18;5.55;;;;;;;20.25;53.08;101926.88;5012762;28;20209;-58
2022/04/14 01:52:36;;;;;;;9.30;5.43;;;;;;;20.25;53.00;101935.69;5013933;28;20034;-58
2022/04/14 01:55:04;;;;;;;7.78;5.20;;;;;;;20.24;53.12;101934.00;5013614;28;20025;-57
2022/04/14 01:57:29;;;;;;;8.60;5.60;;;;;;;20.25;53.11;101930.41;5012967;28;20033;-58
2022/04/14 01:59:59;;;;;;;9.52;5.45;;;;;;;20.23;52.99;101932.28;5013399;28;20080;-58
2022/04/14 02:02:24;;;;;;;8.10;5.70;;;;;;;20.23;52.99;101939.38;5013498;28;20021;-57
2022/04/14 02:04:51;;;;;;;8.05;5.43;;;;;;;20.23;52.98;101937.59;5012303;28;20112;-57
2022/04/14 02:07:16;;;;;;;8.95;5.45;;;;;;;20.21;52.93;101930.72;5013617;28;20026;-58
2022/04/14 02:09:44;;;;;;;8.67;5.13;;;;;;;20.20;52.81;101935.19;5013267;28;20723;-58
2022/04/14 02:12:11;;;;;;;10.93;5.57;;;;;;;20.22;52.98;101932.41;5012498;28;20026;-58
2022/04/14 02:14:37;;;;;;;7.88;5.35;;;;;;;20.19;52.91;101936.13;5013741;28;20038;-58
2022/04/14 02:17:02;;;;;;;9.32;5.18;;;;;;;20.19;53.02;101940.59;5013114;28;20160;-58
2022/04/14 02:19:28;;;;;;;7.97;5.35;;;;;;;20.19;52.97;101935.31;5012501;28;20125;-58
2022/04/14 02:21:54;;;;;;;8.00;5.33;;;;;;;20.18;53.02;101937.06;5013092;28;20108;-59
2022/04/14 02:24:22;;;;;;;7.45;4.38;;;;;;;20.16;52.94;101935.53;5012775;28;20179;-59
2022/04/14 02:26:48;;;;;;;7.38;5.10;;;;;;;20.14;53.04;101940.91;5013267;28;20041;-59
2022/04/14 02:29:13;;;;;;;8.65;5.03;;;;;;;20.14;53.15;101937.41;5013120;28;20029;-58
2022/04/14 02:31:41;;;;;;;8.80;5.50;;;;;;;20.13;53.02;101944.50;5012673;28;20104;-58
2022/04/14 02:34:06;;;;;;;10.50;5.53;;;;;;;20.13;52.84;101944.50;5012978;28;20274;-59
2022/04/14 02:36:31;;;;;;;9.17;5.13;;;;;;;20.10;52.93;101939.44;5013447;28;20022;-57
2022/04/14 02:38:57;;;;;;;7.03;4.97;;;;;;;20.12;52.85;101945.47;5012345;28;20358;-58
2022/04/14 02:41:22;;;;;;;7.60;4.55;;;;;;;20.11;53.00;101949.09;5012885;28;20053;-58
2022/04/14 02:43:56;;;;;;;8.00;5.33;;;;;;;20.10;52.90;101950.88;5012860;28;20030;-58
2022/04/14 02:46:21;;;;;;;;;;;;;;;20.11;53.00;101951.72;5012525;28;20730;-58
2022/04/14 02:48:47;;;;;;;8.17;5.00;;;;;;;20.11;53.10;101946.44;5013215;28;20004;-58
2022/04/14 02:51:12;;;;;;;9.38;4.88;;;;;;;20.09;52.90;101949.19;5012505;28;20639;-58
2022/04/14 02:53:37;;;;;;;10.87;6.37;;;;;;;20.08;52.71;101954.59;5012227;28;20053;-57
2022/04/14 02:56:05;;;;;;;8.30;5.00;;;;;;;20.08;52.80;101952.78;5014072;28;20625;-58
2022/04/14 02:58:30;;;;;;;8.50;4.78;;;;;;;20.07;52.85;101948.44;5016907;28;20045;-58
2022/04/14 03:00:56;;;;;;;7.93;4.95;;;;;;;20.05;52.86;101945.06;5015854;28;20410;-58
2022/04/14 03:03:23;;;;;;;8.40;5.45;;;;;;;20.06;52.95;101945.91;5016973;28;20382;-58
2022/04/14 03:05:49;;;;;;;7.40;4.97;;;;;;;20.04;52.81;101943.38;5016685;28;20025;-58
2022/04/14 03:08:15;;;;;;;8.27;5.20;;;;;;;20.05;52.67;101945.06;5016006;28;20458;-58
2022/04/14 03:10:40;;;;;;;7.13;4.70;;;;;;;20.05;52.69;101947.72;5017038;28;20028;-58
2022/04/14 03:13:08;;;;;;;7.72;5.28;;;;;;;20.02;52.72;101941.81;5016662;28;20781;-58
2022/04/14 03:15:33;;;;;;;7.50;4.53;;;;;;;20.02;52.76;101933.88;5015907;28;20042;-58
2022/04/14 03:17:58;;;;;;;7.10;5.10;;;;;;;20.01;53.04;101945.41;5016530;28;20037;-58
2022/04/14 03:20:24;;;;;;;10.40;5.38;;;;;;;20.00;52.86;101944.56;5017107;28;20291;-58
2022/04/14 03:22:49;;;;;;;7.27;4.90;;;;;;;19.99;52.77;101947.31;5016349;28;20032;-58
2022/04/14 03:25:14;;;;;;;7.27;4.90;;;;;;;19.99;52.81;101949.97;5016974;28;20290;-57
2022/04/14 03:27:40;;;;;;;8.70;5.40;;;;;;;20.00;52.55;101949.84;5015823;28;20747;-58
2022/04/14 03:30:10;;;;;;;6.38;4.90;;;;;;;20.00;52.82;101949.03;5015828;28;20279;-58
2022/04/14 03:32:43;;;;;;;8.25;5.03;;;;;;;19.98;52.67;101956.19;5016247;28;20026;-58
2022/04/14 03:35:09;;;;;;;9.10;5.20;;;;;;;19.97;52.70;101951.88;5015530;28;20057;-58
2022/04/14 03:37:34;;;;;;;8.45;5.07;;;;;;;19.93;52.71;101952.09;5016018;28;20017;-58
2022/04/14 03:40:00;;;;;;;8.18;5.13;;;;;;;19.93;52.65;101949.44;5015841;28;20022;-58
2022/04/14 03:42:26;;;;;;;9.13;5.30;;;;;;;19.93;52.79;101951.22;5015465;28;20092;-59
2022/04/14 03:44:51;;;;;;;9.20;5.30;;;;;;;19.93;52.80;101954.75;5015730;28;20386;-58
2022/04/14 03:47:17;;;;;;;9.03;5.30;;;;;;;19.92;52.80;101950.41;5016139;28;20132;-59
2022/04/14 03:49:42;;;;;;;8.57;5.40;;;;;;;19.90;52.66;101947.03;5015354;28;20307;-58
2022/04/14 03:52:07;;;;;;;6.63;5.03;;;;;;;19.91;52.74;101946.03;5016074;28;20069;-58
2022/04/14 03:54:33;;;;;;;7.60;5.50;;;;;;;19.91;52.72;101942.56;5016004;28;20025;-59
2022/04/14 03:56:58;;;;;;;9.73;5.85;;;;;;;19.91;52.68;101942.56;5014832;28;20022;-59
2022/04/14 03:59:23;;;;;;;9.93;5.43;;;;;;;19.90;52.97;101943.50;5015804;28;20071;-60
2022/04/14 04:01:48;;;;;;;9.75;5.90;;;;;;;19.90;52.74;101939.09;5015427;28;20628;-59
2022/04/14 04:04:14;;;;;;;9.23;5.50;;;;;;;19.90;52.76;101943.50;5015134;28;20108;-59
2022/04/14 04:06:39;;;;;;;9.63;5.63;;;;;;;19.87;52.92;101947.25;5015683;28;20619;-59
2022/04/14 04:09:04;;;;;;;9.13;6.25;;;;;;;19.88;52.88;101950.72;5015344;28;20026;-59
2022/04/14 04:11:30;;;;;;;9.10;5.75;;;;;;;19.88;52.83;101954.19;5014833;28;20029;-59
2022/04/14 04:13:57;;;;;;;9.87;5.67;;;;;;;19.88;52.79;101943.63;5015113;28;20021;-59
2022/04/14 04:16:23;;;;;;;8.73;5.45;;;;;;;19.88;52.89;101950.72;5015305;28;20302;-58
2022/04/14 04:18:57;;;;;;;8.20;5.50;;;;;;;19.86;52.72;101958.75;5014750;28;20022;-58
2022/04/14 04:21:25;;;;;;;9.93;5.53;;;;;;;19.86;52.89;101955.28;5015403;28;20302;-57
2022/04/14 04:23:50;;;;;;;7.50;5.10;;;;;;;19.86;53.20;101966.69;5014481;28;20030;-58
2022/04/14 04:26:18;;;;;;;8.95;5.60;;;;;;;19.86;52.87;101968.50;5015077;28;20073;-58
2022/04/14 04:28:44;;;;;;;8.05;5.53;;;;;;;19.87;52.77;101959.63;5015986;28;20109;-57
2022/04/14 04:31:12;;;;;;;8.57;5.20;;;;;;;19.87;53.00;101967.56;5015251;28;20053;-58
2022/04/14 04:33:37;;;;;;;9.07;5.43;;;;;;;19.85;53.11;101970.31;5015726;28;20040;-58
2022/04/14 04:36:03;;;;;;;7.97;5.20;;;;;;;19.85;52.93;101972.09;5015045;28;20105;-58
2022/04/14 04:38:28;;;;;;;8.52;5.82;;;;;;;19.84;52.94;101976.56;5014480;28;20492;-58
2022/04/14 04:40:55;;;;;;;10.33;5.90;;;;;;;19.82;52.99;101975.81;5014536;28;20030;-58
2022/04/14 04:43:23;;;;;;;7.07;5.25;;;;;;;19.85;52.70;101985.34;5014823;28;20770;-59
2022/04/14 04:45:48;;;;;;;7.20;4.93;;;;;;;19.83;52.91;101982.78;5014098;28;20053;-59
2022/04/14 04:48:13;;;;;;;8.52;5.47;;;;;;;19.83;52.86;101977.50;5014987;28;20508;-59
2022/04/14 04:50:38;;;;;;;8.33;5.60;;;;;;;19.84;52.84;101983.66;5014909;28;20407;-59
2022/04/14 04:53:04;;;;;;;9.30;5.43;;;;;;;19.84;52.86;101978.38;5013483;28;20275;-59
2022/04/14 04:55:30;;;;;;;8.60;5.30;;;;;;;19.83;52.78;101984.59;5014610;28;20113;-59
2022/04/14 04:57:56;;;;;;;9.65;5.45;;;;;;;19.79;52.77;101983.97;5014498;28;20026;-58
2022/04/14 05:00:21;;;;;;;7.97;5.07;;;;;;;19.82;53.03;101989.06;5013741;28;20393;-59
2022/04/14 05:02:49;;;;;;;8.02;5.32;;;;;;;19.81;52.80;101987.34;5014764;28;20044;-59
2022/04/14 05:05:15;;;;;;;9.27;5.60;;;;;;;19.80;52.94;101983.00;5014546;28;20025;-59
2022/04/14 05:07:40;;;;;;;9.03;5.70;;;;;;;19.83;52.77;101992.53;5013756;28;20474;-58
2022/04/14 05:10:06;;;;;;;7.70;5.43;;;;;;;19.81;52.68;101992.66;5014134;28;20675;-58
2022/04/14 05:12:32;;;;;;;7.80;4.93;;;;;;;19.80;52.50;101984.81;5014350;28;20825;-58
2022/04/14 05:14:57;;;;;;;8.93;5.63;;;;;;;19.80;52.43;101992.75;5013210;28;20074;-59
2022/04/14 05:17:22;;;;;;;7.70;5.50;;;;;;;19.81;52.43;101991.81;5014448;28;20041;-59
2022/04/14 05:19:48;;;;;;;7.32;4.68;;;;;;;19.83;52.57;101989.88;5013880;28;20057;-59
2022/04/14 05:22:16;;;;;;;7.63;4.40;;;;;;;19.85;52.59;101991.50;5013368;28;20064;-60
2022/04/14 05:24:41;;;;;;;8.90;4.85;;;;;;;19.88;52.77;102001.81;5014061;28;20174;-58
2022/04/14 05:27:06;;;;;;;7.70;4.37;;;;;;;19.89;52.87;101998.22;5013478;28;20026;-59
2022/04/14 05:29:31;;;;;;;6.37;4.10;;;;;;;19.91;53.02;102009.53;5013949;28;20263;-59
2022/04/14 05:31:57;;;;;;;8.63;4.60;;;;;;;19.93;52.80;102005.00;5014074;28;20271;-59
2022/04/14 05:34:22;;;;;;;6.68;4.38;;;;;;;19.98;52.69;102011.75;5013681;28;20409;-58
2022/04/14 05:36:48;;;;;;;7.70;4.50;;;;;;;20.02;52.57;102008.78;5013855;28;20469;-58
2022/04/14 05:39:13;;;;;;;6.25;4.05;;;;;;;20.06;52.66;102017.34;5013812;28;20022;-58
2022/04/14 05:41:38;;;;;;;8.50;4.40;;;;;;;20.09;52.60;102019.78;5013330;28;20481;-59
2022/04/14 05:44:04;;;;;;;6.37;4.20;;;;;;;20.15;52.72;102026.44;5013399;28;20287;-59
2022/04/14 05:46:29;;;;;;;6.40;4.18;;;;;;;20.20;52.75;102024.31;5013761;28;20026;-59
2022/04/14 05:48:54;;;;;;;8.00;5.00;;;;;;;20.23;52.52;102026.75;5012812;28;20034;-58
2022/04/14 05:51:21;;;;;;;7.43;4.23;;;;;;;20.26;52.58;102026.53;5013862;28;20025;-57
2022/04/14 05:53:51;;;;;;;9.18;4.32;;;;;;;20.29;52.54;102029.78;5013713;28;20034;-58
2022/04/14 05:56:20;;;;;;;7.47;3.90;;;;;;;20.33;52.38;102030.44;5013005;28;20034;-58
2022/04/14 05:58:46;;;;;;;6.07;3.88;;;;;;;20.34;52.25;102029.47;5013801;28;20025;-58
2022/04/14 06:01:12;;;;;;;6.72;4.20;;;;;;;20.32;51.93;102030.53;5013272;28;20057;-59
2022/04/14 06:03:38;;;;;;;6.40;3.88;;;;;;;20.28;52.46;102030.75;5012588;28;20033;-57
2022/04/14 06:06:04;;;;;;;9.15;3.80;;;;;;;20.27;52.85;102031.72;5012776;28;20034;-58
2022/04/14 06:08:29;;;;;;;7.35;3.97;;;;;;;20.24;52.90;102036.38;5013258;28;20028;-58
2022/04/14 06:10:55;;;;;;;10.50;4.00;;;;;;;20.22;53.20;102032.97;5012546;28;20021;-58
2022/04/14 06:13:20;;;;;;;8.73;4.20;;;;;;;20.28;52.08;102029.91;5013240;28;20386;-58
2022/04/14 06:15:48;;;;;;;9.10;4.73;;;;;;;20.34;52.33;102034.75;5012950;28;20056;-57
2022/04/14 06:18:17;;;;;;;7.28;4.30;;;;;;;20.40;52.62;102036.13;5012334;28;20279;-58
2022/04/14 06:20:47;;;;;;;7.63;4.22;;;;;;;20.43;52.40;102033.25;5013366;28;20033;-58
2022/04/14 06:23:16;;;;;;;8.77;4.03;;;;;;;20.41;52.59;102036.03;5012912;28;20079;-58
2022/04/14 06:25:41;;;;;;;10.05;4.32;;;;;;;20.35;53.04;102038.28;5012512;28;20105;-59
2022/04/14 06:28:07;;;;;;;7.60;3.70;;;;;;;20.31;53.19;102027.03;5012945;28;20062;-59
2022/04/14 06:30:32;;;;;;;8.55;3.67;;;;;;;20.33;53.22;102043.66;5011725;28;20053;-58
2022/04/14 06:33:00;;;;;;;8.27;4.38;;;;;;;20.29;53.37;102037.72;5012574;28;20026;-59
2022/04/14 06:35:26;;;;;;;7.43;3.83;;;;;;;20.29;53.58;102045.66;5012950;28;20026;-58
2022/04/14 06:37:52;;;;;;;7.03;3.53;;;;;;;20.30;53.45;102039.44;5012043;28;20470;-59
2022/04/14 06:40:18;;;;;;;7.43;3.58;;;;;;;20.35;53.54;102043.56;5013089;28;20026;-58
2022/04/14 06:42:46;;;;;;;6.72;3.80;;;;;;;20.37;53.50;102042.47;5012962;28;20064;-61
2022/04/14 06:45:12;;;;;;;6.55;3.40;;;;;;;20.42;53.50;102037.69;5011881;28;20485;-59
2022/04/14 06:47:37;;;;;;;6.78;3.50;;;;;;;20.42;53.54;102045.63;5012930;28;20049;-59
2022/04/14 06:50:06;;;;;;;6.47;3.77;;;;;;;20.43;53.53;102046.50;5012610;28;20497;-58
2022/04/14 06:52:32;;;;;;;7.05;3.58;;;;;;;20.46;53.47;102046.28;5012426;28;20054;-59
2022/04/14 06:55:01;;;;;;;7.45;4.13;;;;;;;20.52;53.22;102047.63;5012963;28;20066;-60
2022/04/14 06:57:26;;;;;;;9.25;3.78;;;;;;;20.55;53.31;102045.59;5013019;28;20029;-58
2022/04/14 06:59:51;;;;;;;5.97;3.58;;;;;;;20.59;52.96;102047.06;5012072;28;20347;-59
2022/04/14 07:02:16;;;;;;;6.53;3.53;;;;;;;20.60;52.86;102046.13;5012920;28;20036;-59
2022/04/14 07:04:45;;;;;;;8.90;3.97;;;;;;;20.64;53.10;102050.25;5012702;28;20096;-59
2022/04/14 07:07:10;;;;;;;5.97;3.50;;;;;;;20.64;53.04;102050.25;5011721;28;20275;-60
2022/04/14 07:09:38;;;;;;;8.33;3.83;;;;;;;20.68;53.05;102042.06;5013129;28;20035;-60
2022/04/14 07:12:04;;;;;;;7.05;3.88;;;;;;;20.71;52.72;102042.72;5012486;28;20052;-59
2022/04/14 07:14:30;;;;;;;9.52;4.13;;;;;;;20.76;52.38;102050.31;5011950;28;20045;-58
2022/04/14 07:16:59;;;;;;;7.00;4.30;;;;;;;20.78;52.55;102048.41;5012654;28;20028;-58
2022/04/14 07:19:25;;;;;;;9.45;4.10;;;;;;;20.82;52.40;102050.72;5012560;28;20033;-58
2022/04/14 07:21:50;;;;;;;7.30;3.67;;;;;;;20.83;52.59;102055.03;5011842;28;20479;-58
2022/04/14 07:24:18;;;;;;;8.82;3.40;;;;;;;20.88;52.50;102054.69;5023692;28;20033;-59
2022/04/14 07:26:45;;;;;;;7.90;4.20;;;;;;;20.96;52.40;102062.94;5014373;28;20500;-60
2022/04/14 07:29:10;;;;;;;8.13;4.25;;;;;;;21.04;52.16;102057.06;5012753;28;20426;-61
2022/04/14 07:31:36;;;;;;;6.97;4.03;;;;;;;21.13;52.12;102060.84;5012456;28;20029;-59
2022/04/14 07:34:05;;;;;;;9.23;4.10;;;;;;;21.19;51.78;102066.53;5011785;28;20026;-61
2022/04/14 07:36:30;;;;;;;8.35;4.13;;;;;;;21.24;51.78;102063.53;5012810;28;20030;-60
2022/04/14 07:38:56;;;;;;;7.55;3.90;;;;;;;21.28;51.96;102064.97;5012315;28;20477;-59
2022/04/14 07:41:21;;;;;;;8.10;4.28;;;;;;;21.32;51.59;102071.75;5012245;28;20417;-59
2022/04/14 07:43:49;;;;;;;8.13;4.10;;;;;;;21.35;51.68;102071.50;5016174;28;20026;-60
2022/04/14 07:46:14;;;;;;;8.55;4.18;;;;;;;21.37;51.55;102066.91;5015824;28;20034;-59
2022/04/14 07:48:40;;;;;;;7.90;3.95;;;;;;;21.39;51.74;102064.16;5015281;28;20045;-59
2022/04/14 07:51:08;;;;;;;7.05;3.45;;;;;;;21.42;51.53;102074.53;5016025;28;20041;-59
2022/04/14 07:53:33;;;;;;;8.48;4.00;;;;;;;21.42;51.51;102069.22;5016276;28;20029;-59
2022/04/14 07:55:59;;;;;;;8.50;3.90;;;;;;;21.41;51.40;102067.53;5015198;28;20068;-60
2022/04/14 07:58:24;;;;;;;7.43;3.60;;;;;;;21.43;51.24;102068.28;5015960;28;20494;-60
2022/04/14 08:00:52;;;;;;;7.45;3.53;;;;;;;21.46;51.46;102075.13;5015572;28;20026;-59
2022/04/14 08:03:18;;;;;;;7.65;3.40;;;;;;;21.47;51.42;102069.72;5015145;28;20409;-59
2022/04/14 08:05:46;;;;;;;7.45;3.53;;;;;;;21.49;51.19;102073.16;5015485;28;20034;-60
2022/04/14 08:08:14;;;;;;;8.70;4.68;;;;;;;21.47;50.61;102072.38;5015521;28;20485;-62
2022/04/14 08:10:40;;;;;;;7.38;3.95;;;;;;;21.45;51.38;102069.00;5015111;28;20044;-63
2022/04/14 08:13:06;;;;;;;6.80;3.70;;;;;;;21.44;51.58;102074.41;5015385;28;20026;-62
2022/04/14 08:15:33;;;;;;;9.63;3.65;;;;;;;21.44;51.54;102069.94;5015632;28;20048;-60
2022/04/14 08:17:59;;;;;;;8.10;3.40;;;;;;;21.46;51.67;102078.66;5014986;28;20462;-59
2022/04/14 08:20:27;;;;;;;7.70;3.92;;;;;;;21.50;51.82;102079.28;5016596;28;20097;-59
2022/04/14 08:22:57;;;;;;;7.93;3.22;;;;;;;21.53;51.77;102068.44;5015408;28;20030;-61
2022/04/14 08:25:27;;;;;;;7.70;3.50;;;;;;;21.53;51.83;102069.28;5014999;28;20029;-60
2022/04/14 08:27:54;;;;;;;6.70;3.45;;;;;;;21.52;51.96;102072.91;5015128;28;20029;-60
2022/04/14 08:30:21;;;;;;;10.88;3.50;;;;;;;21.47;51.95;102069.72;5014992;28;20026;-59
2022/04/14 08:32:48;;;;;;;7.78;3.45;;;;;;;21.50;52.11;102077.47;5015137;28;20109;-58
2022/04/14 08:35:14;;;;;;;10.65;3.22;;;;;;;21.52;52.24;102077.34;5015397;28;20059;-59
2022/04/14 08:37:41;;;;;;;10.55;3.20;;;;;;;21.52;52.30;102078.22;5014469;28;20026;-60
2022/04/14 08:40:08;;;;;;;6.13;3.70;;;;;;;21.55;52.43;102074.47;5015004;28;20057;-59
2022/04/14 08:42:56;;;;;;;8.82;4.28;;;;;;;21.57;52.10;102077.88;5015043;28;20026;-59
2022/04/14 08:45:23;;;;;;;7.70;3.40;;;;;;;21.59;52.22;102069.75;5016621;28;20497;-60
2022/04/14 08:47:50;;;;;;;7.45;3.40;;;;;;;21.59;52.23;102062.69;5014698;28;20101;-60
2022/04/14 08:50:16;;;;;;;8.20;3.53;;;;;;;21.60;52.24;102066.16;5015060;28;20022;-60
2022/04/14 08:52:42;;;;;;;8.25;3.10;;;;;;;21.60;52.12;102067.00;5013699;28;20028;-59
2022/04/14 08:55:10;;;;;;;7.05;3.08;;;;;;;21.59;51.47;102067.13;5014070;28;20018;-58
2022/04/14 08:57:36;;;;;;;7.28;3.45;;;;;;;21.59;51.69;102061.81;5015006;28;20026;-59
2022/04/14 09:00:04;;;;;;;10.35;3.35;;;;;;;21.56;51.85;102060.25;5013648;28;20465;-59
2022/04/14 09:02:32;;;;;;;7.95;3.90;;;;;;;21.48;49.24;102073.22;5014759;28;20137;-58
2022/04/14 09:04:58;;;;;;;7.28;3.30;;;;;;;21.44;51.11;102071.75;5014308;28;20053;-59
2022/04/14 09:07:25;;;;;;;7.45;2.80;;;;;;;21.42;51.60;102071.88;5013914;28;20081;-59
2022/04/14 09:09:50;;;;;;;6.88;3.03;;;;;;;21.43;51.80;102076.22;5014255;28;20069;-59
2022/04/14 09:12:17;;;;;;;6.93;2.85;;;;;;;21.43;51.78;102078.03;5013931;28;20485;-59
2022/04/14 09:14:42;;;;;;;11.40;2.70;;;;;;;21.42;51.88;102073.69;5015810;28;20061;-60
2022/04/14 09:17:09;;;;;;;7.15;2.80;;;;;;;21.41;52.11;102075.47;5016481;28;20409;-59
2022/04/14 09:19:38;;;;;;;6.80;3.10;;;;;;;21.42;52.17;102066.56;5016410;28;20538;-60
2022/04/14 09:22:11;;;;;;;7.95;3.65;;;;;;;21.46;52.20;102062.75;5015805;28;20443;-60
2022/04/14 09:24:57;;;;;;;8.05;2.80;;;;;;;21.48;52.10;102057.31;5015303;28;20034;-61
2022/04/14 09:27:32;;;;;;;6.30;2.53;;;;;;;21.50;52.41;102055.41;5014811;28;20034;-60
2022/04/14 09:30:06;;;;;;;6.55;2.92;;;;;;;21.49;52.18;102062.53;5014578;28;20029;-59
2022/04/14 09:32:43;;;;;;;7.05;2.45;;;;;;;21.48;52.64;102062.63;5014522;28;20021;-61
2022/04/14 09:35:17;;;;;;;7.10;2.92;;;;;;;21.47;52.61;102048.50;5013913;28;20045;-59
2022/04/14 09:37:42;;;;;;;5.50;2.67;;;;;;;21.48;52.39;102047.56;5014176;28;20022;-59
2022/04/14 09:40:09;;;;;;;8.45;2.45;;;;;;;21.46;52.58;102045.97;5014443;28;20061;-60
2022/04/14 09:42:42;;;;;;;7.13;2.78;;;;;;;21.44;52.44;102040.78;5014093;28;20501;-59
2022/04/14 09:45:28;;;;;;;7.00;2.65;;;;;;;21.47;51.53;102034.41;5013894;28;20069;-60
2022/04/14 09:47:57;;;;;;;7.90;2.92;;;;;;;21.51;51.66;102035.91;5012650;28;20021;-59
2022/04/14 09:50:28;;;;;;;6.25;2.88;;;;;;;21.53;51.26;102033.97;5013643;28;20425;-59
2022/04/14 09:53:07;;;;;;;6.60;2.40;;;;;;;21.58;51.42;102030.97;5013417;28;20026;-60
2022/04/14 09:55:37;;;;;;;6.50;2.58;;;;;;;21.58;51.32;102029.13;5013752;28;20025;-62
2022/04/14 09:58:06;;;;;;;5.60;2.65;;;;;;;21.60;51.65;102024.56;5013663;28;20026;-64
2022/04/14 10:00:43;;;;;;;7.78;2.95;;;;;;;21.62;51.97;102025.31;5014302;28;20030;-62
2022/04/14 10:03:23;;;;;;;7.47;2.95;;;;;;;21.65;51.98;102027.72;5012680;28;20114;-60
2022/04/14 10:06:13;;;;;;;8.60;3.05;;;;;;;21.67;52.29;102023.13;5013165;28;20076;-63
2022/04/14 10:08:48;;;;;;;9.77;2.53;;;;;;;21.66;52.46;102020.59;5012848;28;20435;-63
2022/04/14 10:11:14;;;;;;;7.35;2.58;;;;;;;21.62;52.86;102021.78;5013700;28;20060;-61
2022/04/14 10:13:40;;;;;;;9.75;2.47;;;;;;;21.59;52.65;102025.53;5013495;28;20034;-62
2022/04/14 10:16:09;;;;;;;7.05;2.60;;;;;;;21.59;53.00;102027.31;5012261;28;20049;-62
2022/04/14 10:18:35;;;;;;;10.20;2.88;;;;;;;21.59;53.20;102041.44;5016187;28;20378;-63
2022/04/14 10:21:00;;;;;;;10.68;2.85;;;;;;;21.59;53.06;102046.75;5013880;28;20018;-65
2022/04/14 10:23:27;;;;;;;5.85;2.50;;;;;;;21.59;53.23;102054.72;5013148;28;20076;-63
2022/04/14 10:25:55;;;;;;;5.90;2.20;;;;;;;21.59;53.00;102061.81;5013367;28;20022;-62
2022/04/14 10:28:21;;;;;;;6.78;2.15;;;;;;;21.60;52.98;102067.00;5013219;28;20036;-62
2022/04/14 10:30:56;;;;;;;8.45;2.92;;;;;;;21.62;53.23;102062.44;5014333;28;20121;-60
2022/04/14 10:33:22;;;;;;;6.43;2.35;;;;;;;21.63;53.11;102069.41;5013438;28;20383;-61
2022/04/14 10:35:49;;;;;;;7.45;2.50;;;;;;;21.62;53.21;102069.53;5013458;28;20030;-60
2022/04/14 10:38:24;;;;;;;6.93;2.15;;;;;;;21.62;52.84;102077.50;5012646;28;20030;-60
2022/04/14 10:41:02;;;;;;;9.88;2.33;;;;;;;21.63;52.96;102069.41;5013025;28;20022;-60
2022/04/14 10:43:29;;;;;;;6.43;2.35;;;;;;;21.64;52.75;102071.13;5013020;28;20034;-60
2022/04/14 10:45:56;;;;;;;7.55;2.17;;;;;;;21.66;52.75;102087.75;5012183;28;20037;-60
2022/04/14 10:48:28;;;;;;;6.07;2.33;;;;;;;21.68;52.94;102071.72;5012971;28;20469;-59
2022/04/14 10:51:16;;;;;;;5.68;2.13;;;;;;;21.71;52.71;102068.81;5012025;28;20022;-59
2022/04/14 10:53:57;;;;;;;8.82;2.08;;;;;;;21.71;52.76;102063.53;5012831;28;20097;-60
2022/04/14 10:56:41;;;;;;;6.50;2.00;;;;;;;21.71;52.51;102067.03;5013091;28;20061;-61
2022/04/14 10:59:11;;;;;;;11.23;3.20;;;;;;;21.72;52.68;102062.56;5012104;28;20030;-60
2022/04/14 11:01:45;;;;;;;7.03;2.30;;;;;;;21.71;52.94;102064.38;5013143;28;20050;-60
2022/04/14 11:04:46;;;;;;;;;;;;;;;21.70;52.93;102053.88;5013078;28;20038;-60
2022/04/14 11:07:20;;;;;;;4.93;1.80;;;;;;;21.67;52.98;102054.13;5030303;28;19942;-60
2022/04/14 11:09:47;;;;;;;7.30;1.90;;;;;;;21.65;53.13;102062.19;5015695;28;20034;-60
2022/04/14 11:12:32;;;;;;;7.50;1.92;;;;;;;21.65;53.28;102059.56;5012038;28;20053;-60
2022/04/14 11:14:58;;;;;;;6.97;2.25;;;;;;;21.66;52.94;102063.88;5012641;28;20053;-61
2022/04/14 11:17:47;;;;;;;8.02;2.60;;;;;;;21.67;52.73;102059.44;5014897;28;20524;-60
2022/04/14 11:20:20;;;;;;;9.68;2.22;;;;;;;21.66;52.65;102057.72;5015899;28;20097;-61
2022/04/14 11:23:03;;;;;;;5.55;1.95;;;;;;;21.65;52.57;102053.38;5017535;28;20037;-64
2022/04/14 11:25:41;;;;;;;7.65;2.00;;;;;;;21.66;52.75;102060.38;5016761;28;20040;-63